createdAt,value
2018-09-06T00:01:55.736Z,8.67
2018-09-06T00:04:24.558Z,8.67
2018-09-06T00:06:53.579Z,8.70
2018-09-06T00:09:22.341Z,8.69
2018-09-06T00:11:51.851Z,8.68
2018-09-06T00:14:20.640Z,8.67
2018-09-06T00:16:49.378Z,8.64
2018-09-06T00:19:17.989Z,8.63
2018-09-06T00:21:46.780Z,8.58
2018-09-06T00:24:15.751Z,8.59
2018-09-06T00:26:44.674Z,8.61
2018-09-06T00:29:13.352Z,8.65
2018-09-06T00:31:42.064Z,8.63
2018-09-06T00:34:10.695Z,8.61
2018-09-06T00:36:39.492Z,8.59
2018-09-06T00:39:08.952Z,8.58
2018-09-06T00:41:37.672Z,8.27
2018-09-06T00:44:06.788Z,8.47
2018-09-06T00:46:35.470Z,8.43
2018-09-06T00:49:04.193Z,8.40
2018-09-06T00:51:32.896Z,8.39
2018-09-06T00:54:01.920Z,8.33
2018-09-06T00:56:30.586Z,8.26
2018-09-06T00:58:59.386Z,8.21
2018-09-06T01:01:28.154Z,8.22
2018-09-06T01:03:57.098Z,8.27
2018-09-06T01:06:25.723Z,8.30
2018-09-06T01:08:54.399Z,8.31
2018-09-06T01:11:23.073Z,8.30
2018-09-06T01:13:51.928Z,8.28
2018-09-06T01:16:20.677Z,8.30
2018-09-06T01:18:49.403Z,8.33
2018-09-06T01:21:18.146Z,8.35
2018-09-06T01:23:46.824Z,8.39
2018-09-06T01:26:15.548Z,8.37
2018-09-06T01:28:44.209Z,8.37
2018-09-06T01:31:12.839Z,8.32
2018-09-06T01:33:41.552Z,8.34
2018-09-06T01:36:15.658Z,8.27
2018-09-06T01:38:44.312Z,8.29
2018-09-06T01:41:13.010Z,8.32
2018-09-06T01:43:41.928Z,8.32
2018-09-06T01:46:10.822Z,8.30
2018-09-06T01:48:39.849Z,8.29
2018-09-06T01:51:08.669Z,8.26
2018-09-06T01:53:37.562Z,8.29
2018-09-06T01:56:06.478Z,8.27
2018-09-06T01:58:35.188Z,8.27
2018-09-06T02:01:03.960Z,8.24
2018-09-06T02:03:32.793Z,8.21
2018-09-06T02:06:01.877Z,8.12
2018-09-06T02:08:30.707Z,8.12
2018-09-06T02:10:59.648Z,8.12
2018-09-06T02:13:28.486Z,8.14
2018-09-06T02:15:57.460Z,8.07
2018-09-06T02:18:26.500Z,8.06
2018-09-06T02:20:55.308Z,8.06
2018-09-06T02:23:24.120Z,8.07
2018-09-06T02:25:52.927Z,8.09
2018-09-06T02:28:21.622Z,8.09
2018-09-06T02:30:50.568Z,8.07
2018-09-06T02:33:19.670Z,8.04
2018-09-06T02:35:48.545Z,8.07
2018-09-06T02:38:17.522Z,8.07
2018-09-06T02:40:46.393Z,8.09
2018-09-06T02:43:15.064Z,8.09
2018-09-06T02:45:44.806Z,8.09
2018-09-06T02:48:13.576Z,8.11
2018-09-06T02:50:47.823Z,8.12
2018-09-06T02:53:16.647Z,8.11
2018-09-06T02:55:46.407Z,8.07
2018-09-06T02:58:15.114Z,8.10
2018-09-06T03:00:43.868Z,8.11
2018-09-06T03:03:12.969Z,8.11
2018-09-06T03:05:41.800Z,8.09
2018-09-06T03:08:10.749Z,8.10
2018-09-06T03:10:43.528Z,8.07
2018-09-06T03:13:12.249Z,8.07
2018-09-06T03:15:40.962Z,8.08
2018-09-06T03:18:09.989Z,8.10
2018-09-06T03:20:38.855Z,8.09
2018-09-06T03:23:07.628Z,8.07
2018-09-06T03:25:36.494Z,8.07
2018-09-06T03:28:05.709Z,8.07
2018-09-06T03:30:34.497Z,8.08
2018-09-06T03:33:03.669Z,8.05
2018-09-06T03:35:32.777Z,8.03
2018-09-06T03:38:01.684Z,8.02
2018-09-06T03:40:30.390Z,7.98
2018-09-06T03:42:59.135Z,7.98
2018-09-06T03:45:27.734Z,7.92
2018-09-06T03:47:56.362Z,7.95
2018-09-06T03:50:25.076Z,7.95
2018-09-06T03:52:53.843Z,7.94
2018-09-06T03:55:22.670Z,8.00
2018-09-06T03:57:51.478Z,8.00
2018-09-06T04:00:20.391Z,8.06
2018-09-06T04:02:49.047Z,8.09
2018-09-06T04:05:18.078Z,8.12
2018-09-06T04:07:46.868Z,8.15
2018-09-06T04:10:15.540Z,8.18
2018-09-06T04:12:44.287Z,8.15
2018-09-06T04:15:13.015Z,8.19
2018-09-06T04:17:41.611Z,8.27
2018-09-06T04:20:10.560Z,8.34
2018-09-06T04:22:43.885Z,8.40
2018-09-06T04:25:12.748Z,8.44
2018-09-06T04:27:41.531Z,8.47
2018-09-06T04:30:10.660Z,8.50
2018-09-06T04:32:39.491Z,8.53
2018-09-06T04:35:08.261Z,8.58
2018-09-06T04:37:36.938Z,8.62
2018-09-06T04:40:05.796Z,8.64
2018-09-06T04:42:34.799Z,8.66
2018-09-06T04:45:03.836Z,8.67
2018-09-06T04:47:32.695Z,8.70
2018-09-06T04:50:01.672Z,8.70
2018-09-06T04:52:30.481Z,8.77
2018-09-06T04:54:59.093Z,8.82
2018-09-06T04:57:27.734Z,8.87
2018-09-06T04:59:56.628Z,8.84
2018-09-06T05:02:25.389Z,8.83
2018-09-06T05:04:54.018Z,8.80
2018-09-06T05:07:22.779Z,8.86
2018-09-06T05:09:51.598Z,8.89
2018-09-06T05:12:20.226Z,8.94
2018-09-06T05:14:49.346Z,9.04
2018-09-06T05:17:18.427Z,9.12
2018-09-06T05:19:47.184Z,8.98
2018-09-06T05:22:15.820Z,9.07
2018-09-06T05:24:44.581Z,9.25
2018-09-06T05:27:13.302Z,9.47
2018-09-06T05:29:41.873Z,9.56
2018-09-06T05:32:10.559Z,9.73
2018-09-06T05:34:39.439Z,9.83
2018-09-06T05:37:08.217Z,9.86
2018-09-06T05:39:37.008Z,9.95
2018-09-06T05:42:05.768Z,10.30
2018-09-06T05:44:34.511Z,10.35
2018-09-06T05:47:03.435Z,10.38
2018-09-06T05:49:32.154Z,10.29
2018-09-06T05:52:01.124Z,10.16
2018-09-06T05:54:29.938Z,10.08
2018-09-06T05:56:58.748Z,10.16
2018-09-06T05:59:27.483Z,10.20
2018-09-06T06:01:56.107Z,10.24
2018-09-06T06:04:24.797Z,10.35
2018-09-06T06:06:53.447Z,10.34
2018-09-06T06:09:22.300Z,10.41
2018-09-06T06:11:51.292Z,10.47
2018-09-06T06:14:20.063Z,10.59
2018-09-06T06:16:48.819Z,10.62
2018-09-06T06:19:17.650Z,10.65
2018-09-06T06:21:46.323Z,10.67
2018-09-06T06:24:15.215Z,10.73
2018-09-06T06:26:43.957Z,10.78
2018-09-06T06:29:12.774Z,10.80
2018-09-06T06:31:41.384Z,10.64
2018-09-06T06:34:10.274Z,10.59
2018-09-06T06:36:39.191Z,10.56
2018-09-06T06:39:10.911Z,10.67
2018-09-06T06:41:39.787Z,10.69
2018-09-06T06:44:08.626Z,10.75
2018-09-06T06:46:37.364Z,10.80
2018-09-06T06:49:06.575Z,10.89
2018-09-06T06:51:35.464Z,10.92
2018-09-06T06:54:04.584Z,10.85
2018-09-06T06:56:33.433Z,10.79
2018-09-06T06:59:02.116Z,10.69
2018-09-06T07:01:30.817Z,10.71
2018-09-06T07:03:59.544Z,10.79
2018-09-06T07:06:28.357Z,10.86
2018-09-06T07:08:57.057Z,10.85
2018-09-06T07:11:25.920Z,10.89
2018-09-06T07:13:54.916Z,10.79
2018-09-06T07:16:23.639Z,10.86
2018-09-06T07:18:53.062Z,10.84
2018-09-06T07:21:21.952Z,10.78
2018-09-06T07:23:50.911Z,10.80
2018-09-06T07:26:19.617Z,10.82
2018-09-06T07:28:48.506Z,10.89
2018-09-06T07:31:17.325Z,11.02
2018-09-06T07:33:46.070Z,11.12
2018-09-06T07:36:15.079Z,11.19
2018-09-06T07:38:44.153Z,11.24
2018-09-06T07:41:13.255Z,11.27
2018-09-06T07:43:42.220Z,11.24
2018-09-06T07:46:11.080Z,11.26
2018-09-06T07:48:39.910Z,11.33
2018-09-06T07:51:08.618Z,11.37
2018-09-06T07:53:37.280Z,11.39
2018-09-06T07:56:06.052Z,11.41
2018-09-06T07:58:34.787Z,11.42
2018-09-06T08:01:03.517Z,11.43
2018-09-06T08:03:32.437Z,11.52
2018-09-06T08:06:01.310Z,11.55
2018-09-06T08:08:30.229Z,11.55
2018-09-06T08:10:59.020Z,11.57
2018-09-06T08:13:27.808Z,11.68
2018-09-06T08:15:56.450Z,11.64
2018-09-06T08:18:25.242Z,11.63
2018-09-06T08:20:54.230Z,11.58
2018-09-06T08:23:23.143Z,11.50
2018-09-06T08:25:52.112Z,11.54
2018-09-06T08:28:20.849Z,11.56
2018-09-06T08:30:49.866Z,11.65
2018-09-06T08:33:18.745Z,11.74
2018-09-06T08:35:47.768Z,11.76
2018-09-06T08:38:16.726Z,11.85
2018-09-06T08:40:45.860Z,11.83
2018-09-06T08:43:14.668Z,11.85
2018-09-06T08:45:43.669Z,12.01
2018-09-06T08:48:12.476Z,12.05
2018-09-06T08:50:41.221Z,12.16
2018-09-06T08:53:09.905Z,12.23
2018-09-06T08:55:38.569Z,12.35
2018-09-06T08:58:07.184Z,12.48
2018-09-06T09:00:38.224Z,12.60
2018-09-06T09:03:07.182Z,12.63
2018-09-06T09:05:36.103Z,12.70
2018-09-06T09:08:05.383Z,12.82
2018-09-06T09:10:34.083Z,12.93
2018-09-06T09:13:02.987Z,12.94
2018-09-06T09:15:31.623Z,13.05
2018-09-06T09:18:00.351Z,13.11
2018-09-06T09:20:29.067Z,12.98
2018-09-06T09:22:57.832Z,13.01
2018-09-06T09:25:26.709Z,13.06
2018-09-06T09:27:55.616Z,12.98
2018-09-06T09:30:24.436Z,12.93
2018-09-06T09:32:53.542Z,13.00
2018-09-06T09:35:22.458Z,13.14
2018-09-06T09:37:51.168Z,13.13
2018-09-06T09:40:20.181Z,13.22
2018-09-06T09:42:49.750Z,13.32
2018-09-06T09:45:18.454Z,13.19
2018-09-06T09:47:47.328Z,13.27
2018-09-06T09:52:44.395Z,13.57
2018-09-06T09:55:13.037Z,13.42
2018-09-06T09:57:41.917Z,13.36
2018-09-06T10:00:10.581Z,13.35
2018-09-06T10:02:44.708Z,13.42
2018-09-06T10:05:18.799Z,13.37
2018-09-06T10:07:52.801Z,13.59
2018-09-06T10:10:21.960Z,13.77
2018-09-06T10:12:50.625Z,13.93
2018-09-06T10:15:19.604Z,14.03
2018-09-06T10:17:48.533Z,14.13
2018-09-06T10:20:17.720Z,14.27
2018-09-06T10:22:46.765Z,14.39
2018-09-06T10:25:15.485Z,14.25
2018-09-06T10:27:44.784Z,14.26
2018-09-06T10:30:13.695Z,14.30
2018-09-06T10:32:42.617Z,14.43
2018-09-06T10:35:11.761Z,14.64
2018-09-06T10:37:40.836Z,14.92
2018-09-06T10:40:09.193Z,15.12
2018-09-06T10:42:38.208Z,15.41
2018-09-06T10:45:07.325Z,15.88
2018-09-06T10:47:35.959Z,16.32
2018-09-06T10:50:05.928Z,16.29
2018-09-06T10:52:34.694Z,16.31
2018-09-06T10:55:03.624Z,16.34
2018-09-06T10:57:32.549Z,16.51
2018-09-06T11:00:01.366Z,16.72
2018-09-06T11:02:30.188Z,17.20
2018-09-06T11:04:59.088Z,18.06
2018-09-06T11:07:28.011Z,18.95
2018-09-06T11:09:56.995Z,19.27
2018-09-06T11:12:25.892Z,19.55
2018-09-06T11:14:54.921Z,19.91
2018-09-06T11:17:23.712Z,20.03
2018-09-06T11:19:52.387Z,20.16
2018-09-06T11:22:21.385Z,20.61
2018-09-06T11:24:50.331Z,20.99
2018-09-06T11:27:18.996Z,21.16
2018-09-06T11:29:47.910Z,21.34
2018-09-06T11:32:17.118Z,21.63
2018-09-06T11:34:45.865Z,21.75
2018-09-06T11:37:14.961Z,22.06
2018-09-06T11:39:43.607Z,22.13
2018-09-06T11:42:13.030Z,21.88
2018-09-06T11:44:41.296Z,22.22
2018-09-06T11:47:10.319Z,22.42
2018-09-06T11:49:39.087Z,22.70
2018-09-06T11:52:08.392Z,23.01
2018-09-06T11:54:37.214Z,22.67
2018-09-06T11:57:06.257Z,22.20
2018-09-06T11:59:35.293Z,22.38
2018-09-06T12:02:04.492Z,22.53
2018-09-06T12:04:33.086Z,22.90
2018-09-06T12:07:01.783Z,23.12
2018-09-06T12:09:30.666Z,23.15
2018-09-06T12:11:59.619Z,23.14
2018-09-06T12:14:28.322Z,23.17
2018-09-06T12:16:56.983Z,23.11
2018-09-06T12:19:25.620Z,22.75
2018-09-06T12:21:54.547Z,22.61
2018-09-06T12:24:23.476Z,22.47
2018-09-06T12:26:52.217Z,22.51
2018-09-06T12:29:21.199Z,22.87
2018-09-06T12:31:50.179Z,22.62
2018-09-06T12:34:19.209Z,22.69
2018-09-06T12:36:48.749Z,22.92
2018-09-06T12:39:17.607Z,22.46
2018-09-06T12:41:46.324Z,22.46
2018-09-06T12:44:15.448Z,22.50
2018-09-06T12:46:44.443Z,23.01
2018-09-06T12:49:13.223Z,22.63
2018-09-06T12:51:42.244Z,22.58
2018-09-06T12:54:10.934Z,22.82
2018-09-06T12:56:39.991Z,23.13
2018-09-06T12:59:08.849Z,22.90
2018-09-06T13:01:37.556Z,23.15
2018-09-06T13:04:06.759Z,23.10
2018-09-06T13:06:35.485Z,23.51
2018-09-06T13:09:05.361Z,23.82
2018-09-06T13:11:33.961Z,24.26
2018-09-06T13:14:02.677Z,24.30
2018-09-06T13:16:31.562Z,24.34
2018-09-06T13:19:00.499Z,24.47
2018-09-06T13:21:29.204Z,24.42
2018-09-06T13:23:57.797Z,24.64
2018-09-06T13:26:26.637Z,25.29
2018-09-06T13:28:55.381Z,25.80
2018-09-06T13:31:24.597Z,26.55
2018-09-06T13:33:53.289Z,27.27
2018-09-06T13:36:22.246Z,26.78
2018-09-06T13:38:51.094Z,25.82
2018-09-06T13:41:19.972Z,25.13
2018-09-06T13:43:48.807Z,24.38
2018-09-06T13:46:17.833Z,23.80
2018-09-06T13:48:46.773Z,23.62
2018-09-06T13:51:15.616Z,23.78
2018-09-06T13:53:44.421Z,23.48
2018-09-06T13:56:13.288Z,23.79
2018-09-06T13:58:42.128Z,24.72
2018-09-06T14:01:11.106Z,26.03
2018-09-06T14:03:39.910Z,27.63
2018-09-06T14:06:08.938Z,29.18
2018-09-06T14:08:37.932Z,29.59
2018-09-06T14:11:06.739Z,29.38
2018-09-06T14:13:35.475Z,30.35
2018-09-06T14:16:04.310Z,30.43
2018-09-06T14:18:33.061Z,30.73
2018-09-06T14:21:01.903Z,30.98
2018-09-06T14:23:30.726Z,31.03
2018-09-06T14:25:59.495Z,30.83
2018-09-06T14:28:28.070Z,30.94
2018-09-06T14:30:56.890Z,31.15
2018-09-06T14:33:25.948Z,30.42
2018-09-06T14:35:54.866Z,30.37
2018-09-06T14:38:23.703Z,29.33
2018-09-06T14:40:52.537Z,29.64
2018-09-06T14:43:21.340Z,29.61
2018-09-06T14:45:50.035Z,29.67
2018-09-06T14:48:18.809Z,29.33
2018-09-06T14:50:47.820Z,28.56
2018-09-06T14:53:16.516Z,28.21
2018-09-06T14:55:45.157Z,28.03
2018-09-06T14:58:13.939Z,28.44
2018-09-06T15:00:43.101Z,28.12
2018-09-06T15:03:11.723Z,27.86
2018-09-06T15:05:40.395Z,27.76
2018-09-06T15:08:09.371Z,26.97
2018-09-06T15:10:38.632Z,27.21
2018-09-06T15:13:07.623Z,26.00
2018-09-06T15:15:36.261Z,24.14
2018-09-06T15:18:04.938Z,23.10
2018-09-06T15:20:33.832Z,22.33
2018-09-06T15:23:02.760Z,21.68
2018-09-06T15:25:31.444Z,21.10
2018-09-06T15:28:00.442Z,20.67
2018-09-06T15:30:29.369Z,20.33
2018-09-06T15:32:58.162Z,20.08
2018-09-06T15:35:26.976Z,20.10
2018-09-06T15:37:56.052Z,20.15
2018-09-06T15:40:25.964Z,20.43
2018-09-06T15:42:54.679Z,20.30
2018-09-06T15:45:23.507Z,19.86
2018-09-06T15:47:52.610Z,20.21
2018-09-06T15:50:21.569Z,20.20
2018-09-06T15:52:50.488Z,19.73
2018-09-06T15:55:19.177Z,19.33
2018-09-06T15:57:47.960Z,19.13
2018-09-06T16:00:16.624Z,18.98
2018-09-06T16:02:45.473Z,18.77
2018-09-06T16:05:14.516Z,18.59
2018-09-06T16:07:43.875Z,18.46
2018-09-06T16:10:12.558Z,18.28
2018-09-06T16:12:41.241Z,18.05
2018-09-06T16:15:10.361Z,17.76
2018-09-06T16:17:39.324Z,17.74
2018-09-06T16:20:09.198Z,17.74
2018-09-06T16:22:38.179Z,17.63
2018-09-06T16:25:06.933Z,17.53
2018-09-06T16:27:35.810Z,17.42
2018-09-06T16:30:05.229Z,17.35
2018-09-06T16:32:34.001Z,17.30
2018-09-06T16:35:02.761Z,17.23
2018-09-06T16:37:31.502Z,17.11
2018-09-06T16:40:00.381Z,16.99
2018-09-06T16:42:29.114Z,16.89
2018-09-06T16:44:57.991Z,16.74
2018-09-06T16:47:26.669Z,16.67
2018-09-06T16:49:55.627Z,16.60
2018-09-06T16:52:24.264Z,16.51
2018-09-06T16:54:53.376Z,16.41
2018-09-06T16:57:22.250Z,16.29
2018-09-06T16:59:51.001Z,16.21
2018-09-06T17:02:19.895Z,16.12
2018-09-06T17:04:49.280Z,16.04
2018-09-06T17:07:18.090Z,15.94
2018-09-06T17:09:46.942Z,15.90
2018-09-06T17:12:15.858Z,15.84
2018-09-06T17:14:44.547Z,15.75
2018-09-06T17:17:13.317Z,15.69
2018-09-06T17:19:41.990Z,15.60
2018-09-06T17:22:10.652Z,15.52
2018-09-06T17:24:39.487Z,15.44
2018-09-06T17:27:08.268Z,15.34
2018-09-06T17:29:36.943Z,15.26
2018-09-06T17:32:05.690Z,15.17
2018-09-06T17:34:34.568Z,15.08
2018-09-06T17:37:03.764Z,15.00
2018-09-06T17:39:32.878Z,14.91
2018-09-06T17:42:01.783Z,14.81
2018-09-06T17:44:30.693Z,14.72
2018-09-06T17:46:59.570Z,14.64
2018-09-06T17:49:28.631Z,14.56
2018-09-06T17:51:57.232Z,14.49
2018-09-06T17:54:26.264Z,14.42
2018-09-06T17:56:55.008Z,14.33
2018-09-06T17:59:24.117Z,10.24
2018-09-06T18:01:53.115Z,14.12
2018-09-06T18:04:22.091Z,14.04
2018-09-06T18:06:51.713Z,13.96
2018-09-06T18:09:20.469Z,13.89
2018-09-06T18:11:49.156Z,13.84
2018-09-06T18:14:18.144Z,13.78
2018-09-06T18:16:46.833Z,13.73
2018-09-06T18:19:15.477Z,13.66
2018-09-06T18:21:44.474Z,13.59
2018-09-06T18:24:13.447Z,13.48
2018-09-06T18:26:42.246Z,13.39
2018-09-06T18:29:11.050Z,13.30
2018-09-06T18:31:39.878Z,13.25
2018-09-06T18:34:08.788Z,13.19
2018-09-06T18:36:37.727Z,13.12
2018-09-06T18:39:07.637Z,13.05
2018-09-06T18:41:37.182Z,12.95
2018-09-06T18:44:05.961Z,12.86
2018-09-06T18:46:34.864Z,12.84
2018-09-06T18:49:03.918Z,12.79
2018-09-06T18:51:32.786Z,12.75
2018-09-06T18:54:01.536Z,12.70
2018-09-06T18:56:30.380Z,12.64
2018-09-06T18:58:59.208Z,12.60
2018-09-06T19:01:28.055Z,12.53
2018-09-06T19:03:57.449Z,12.46
2018-09-06T19:06:26.529Z,12.40
2018-09-06T19:08:55.251Z,12.34
2018-09-06T19:11:24.329Z,12.31
2018-09-06T19:13:53.142Z,12.27
2018-09-06T19:16:21.881Z,12.23
2018-09-06T19:18:51.177Z,12.18
2018-09-06T19:21:20.105Z,12.13
2018-09-06T19:23:49.017Z,12.04
2018-09-06T19:26:17.958Z,11.98
2018-09-06T19:28:46.707Z,11.92
2018-09-06T19:31:15.606Z,11.89
2018-09-06T19:33:44.386Z,11.84
2018-09-06T19:36:13.057Z,11.77
2018-09-06T19:38:41.876Z,11.74
2018-09-06T19:41:10.751Z,11.71
2018-09-06T19:43:39.558Z,11.68
2018-09-06T19:46:08.515Z,11.65
2018-09-06T19:48:37.889Z,11.61
2018-09-06T19:51:07.021Z,11.61
2018-09-06T19:53:35.817Z,11.57
2018-09-06T19:56:04.723Z,11.50
2018-09-06T19:58:33.436Z,11.41
2018-09-06T20:01:02.146Z,11.35
2018-09-06T20:03:30.805Z,11.27
2018-09-06T20:05:59.746Z,11.24
2018-09-06T20:08:28.737Z,11.21
2018-09-06T20:10:57.775Z,11.19
2018-09-06T20:13:26.493Z,11.17
2018-09-06T20:15:55.259Z,11.14
2018-09-06T20:18:24.931Z,11.10
2018-09-06T20:20:53.673Z,11.02
2018-09-06T20:23:22.388Z,10.98
2018-09-06T20:25:51.333Z,10.90
2018-09-06T20:28:20.115Z,10.80
2018-09-06T20:30:49.015Z,10.75
2018-09-06T20:33:17.868Z,10.75
2018-09-06T20:35:46.841Z,10.74
2018-09-06T20:38:15.559Z,10.71
2018-09-06T20:40:44.293Z,10.71
2018-09-06T20:43:12.971Z,10.71
2018-09-06T20:45:41.599Z,10.67
2018-09-06T20:48:10.432Z,10.64
2018-09-06T20:50:39.168Z,10.57
2018-09-06T20:53:08.192Z,10.57
2018-09-06T20:55:36.928Z,10.55
2018-09-06T20:58:05.829Z,10.46
2018-09-06T21:00:34.686Z,10.45
2018-09-06T21:03:03.308Z,10.42
2018-09-06T21:05:32.294Z,10.37
2018-09-06T21:08:01.214Z,10.35
2018-09-06T21:10:30.082Z,10.31
2018-09-06T21:12:59.474Z,10.29
2018-09-06T21:15:28.247Z,10.26
2018-09-06T21:17:57.087Z,10.22
2018-09-06T21:20:25.867Z,10.21
2018-09-06T21:22:54.459Z,10.18
2018-09-06T21:25:23.237Z,10.15
2018-09-06T21:27:52.073Z,10.09
2018-09-06T21:30:21.034Z,10.07
2018-09-06T21:32:49.859Z,10.03
2018-09-06T21:35:18.748Z,9.98
2018-09-06T21:40:22.880Z,9.80
2018-09-06T21:42:51.861Z,9.80
2018-09-06T21:45:20.752Z,9.83
2018-09-06T21:47:49.554Z,9.84
2018-09-06T21:50:18.182Z,9.85
2018-09-06T21:52:46.947Z,9.86
2018-09-06T21:55:15.619Z,9.80
2018-09-06T21:57:44.414Z,9.83
2018-09-06T22:00:13.114Z,9.86
2018-09-06T22:02:47.098Z,9.86
2018-09-06T22:05:15.811Z,9.83
2018-09-06T22:07:44.503Z,9.81
2018-09-06T22:10:13.520Z,9.77
2018-09-06T22:12:42.243Z,9.76
2018-09-06T22:15:11.075Z,9.75
2018-09-06T22:17:39.915Z,9.71
2018-09-06T22:20:08.702Z,9.68
2018-09-06T22:22:37.330Z,9.67
2018-09-06T22:25:06.453Z,9.64
2018-09-06T22:27:35.318Z,9.57
2018-09-06T22:30:04.827Z,9.60
2018-09-06T22:32:33.690Z,9.62
2018-09-06T22:35:02.411Z,9.65
2018-09-06T22:37:31.497Z,9.63
2018-09-06T22:40:00.570Z,9.60
2018-09-06T22:42:29.267Z,9.57
2018-09-06T22:44:57.959Z,9.55
2018-09-06T22:47:26.685Z,9.52
2018-09-06T22:49:55.402Z,9.54
2018-09-06T22:52:24.138Z,9.51
2018-09-06T22:54:53.011Z,9.49
2018-09-06T22:57:21.603Z,9.43
2018-09-06T22:59:50.255Z,9.41
2018-09-06T23:02:18.966Z,9.38
2018-09-06T23:04:47.681Z,9.37
2018-09-06T23:07:16.486Z,9.35
2018-09-06T23:09:45.416Z,9.31
2018-09-06T23:12:14.083Z,9.28
2018-09-06T23:14:42.763Z,9.27
2018-09-06T23:17:11.413Z,9.18
2018-09-06T23:19:40.027Z,9.08
2018-09-06T23:22:08.803Z,9.09
2018-09-06T23:24:37.694Z,9.11
2018-09-06T23:27:06.472Z,9.15
2018-09-06T23:29:35.162Z,9.13
2018-09-06T23:32:04.768Z,9.13
2018-09-06T23:34:36.877Z,9.12
2018-09-06T23:37:06.619Z,9.12
2018-09-06T23:39:35.776Z,9.07
2018-09-06T23:42:04.457Z,9.02
2018-09-06T23:44:33.313Z,8.99
2018-09-06T23:47:02.579Z,9.00
2018-09-06T23:49:31.299Z,8.98
2018-09-06T23:52:00.102Z,8.97
2018-09-06T23:54:29.109Z,8.93
2018-09-06T23:56:57.702Z,8.88
2018-09-06T23:59:26.399Z,8.88
